sensor_id;sensor_type;location;lat;lon;timestamp;temperature;humidity
64499;SHT31;51087;55.718;21.122;2023-08-17T00:01:24;18.18;95.84
64499;SHT31;51087;55.718;21.122;2023-08-17T00:03:49;18.14;95.95
64499;SHT31;51087;55.718;21.122;2023-08-17T00:06:15;18.14;96.09
64499;SHT31;51087;55.718;21.122;2023-08-17T00:08:41;18.11;96.17
64499;SHT31;51087;55.718;21.122;2023-08-17T00:11:07;18.08;96.27
64499;SHT31;51087;55.718;21.122;2023-08-17T00:13:32;18.13;96.21
64499;SHT31;51087;55.718;21.122;2023-08-17T00:15:57;18.08;96.29
64499;SHT31;51087;55.718;21.122;2023-08-17T00:18:23;18.05;96.37
64499;SHT31;51087;55.718;21.122;2023-08-17T00:20:48;18.07;96.44
64499;SHT31;51087;55.718;21.122;2023-08-17T00:23:14;18.03;96.62
64499;SHT31;51087;55.718;21.122;2023-08-17T00:25:39;18.04;96.72
64499;SHT31;51087;55.718;21.122;2023-08-17T00:28:04;18.00;96.80
64499;SHT31;51087;55.718;21.122;2023-08-17T00:30:30;18.03;96.91
64499;SHT31;51087;55.718;21.122;2023-08-17T00:32:55;18.01;97.05
64499;SHT31;51087;55.718;21.122;2023-08-17T00:35:21;17.98;96.86
64499;SHT31;51087;55.718;21.122;2023-08-17T00:37:46;18.03;96.62
64499;SHT31;51087;55.718;21.122;2023-08-17T00:40:12;17.97;96.66
64499;SHT31;51087;55.718;21.122;2023-08-17T00:42:37;17.94;96.73
64499;SHT31;51087;55.718;21.122;2023-08-17T00:45:03;17.96;96.66
64499;SHT31;51087;55.718;21.122;2023-08-17T00:47:28;17.94;96.75
64499;SHT31;51087;55.718;21.122;2023-08-17T00:49:55;17.96;96.48
64499;SHT31;51087;55.718;21.122;2023-08-17T00:52:21;17.93;96.75
64499;SHT31;51087;55.718;21.122;2023-08-17T00:54:46;17.93;96.63
64499;SHT31;51087;55.718;21.122;2023-08-17T00:57:12;17.94;96.44
64499;SHT31;51087;55.718;21.122;2023-08-17T00:59:38;17.91;96.36
64499;SHT31;51087;55.718;21.122;2023-08-17T01:02:04;17.87;96.01
64499;SHT31;51087;55.718;21.122;2023-08-17T01:04:29;17.84;95.60
64499;SHT31;51087;55.718;21.122;2023-08-17T01:06:56;17.83;94.97
64499;SHT31;51087;55.718;21.122;2023-08-17T01:09:22;17.86;94.74
64499;SHT31;51087;55.718;21.122;2023-08-17T01:14:33;17.91;95.02
64499;SHT31;51087;55.718;21.122;2023-08-17T01:17:14;17.90;94.86
64499;SHT31;51087;55.718;21.122;2023-08-17T01:19:42;17.93;94.92
64499;SHT31;51087;55.718;21.122;2023-08-17T01:22:11;17.90;95.08
64499;SHT31;51087;55.718;21.122;2023-08-17T01:24:38;17.89;95.31
64499;SHT31;51087;55.718;21.122;2023-08-17T01:27:03;17.83;95.35
64499;SHT31;51087;55.718;21.122;2023-08-17T01:29:29;17.79;95.67
64499;SHT31;51087;55.718;21.122;2023-08-17T01:32:09;17.73;95.72
64499;SHT31;51087;55.718;21.122;2023-08-17T01:34:40;17.70;95.96
64499;SHT31;51087;55.718;21.122;2023-08-17T01:37:09;17.75;96.00
64499;SHT31;51087;55.718;21.122;2023-08-17T01:39:43;17.76;96.23
64499;SHT31;51087;55.718;21.122;2023-08-17T01:42:10;17.72;96.31
64499;SHT31;51087;55.718;21.122;2023-08-17T01:44:38;17.67;96.54
64499;SHT31;51087;55.718;21.122;2023-08-17T01:47:04;17.73;96.94
64499;SHT31;51087;55.718;21.122;2023-08-17T01:49:29;17.69;97.03
64499;SHT31;51087;55.718;21.122;2023-08-17T01:51:54;17.69;97.02
64499;SHT31;51087;55.718;21.122;2023-08-17T01:54:20;17.67;97.28
64499;SHT31;51087;55.718;21.122;2023-08-17T01:56:45;17.69;97.44
64499;SHT31;51087;55.718;21.122;2023-08-17T01:59:11;17.75;97.47
64499;SHT31;51087;55.718;21.122;2023-08-17T02:01:36;17.75;97.58
64499;SHT31;51087;55.718;21.122;2023-08-17T02:04:02;17.79;97.58
64499;SHT31;51087;55.718;21.122;2023-08-17T02:06:28;17.83;97.66
64499;SHT31;51087;55.718;21.122;2023-08-17T02:08:54;17.84;97.73
64499;SHT31;51087;55.718;21.122;2023-08-17T02:11:19;17.87;97.74
64499;SHT31;51087;55.718;21.122;2023-08-17T02:13:45;17.87;97.79
64499;SHT31;51087;55.718;21.122;2023-08-17T02:16:10;17.89;97.96
64499;SHT31;51087;55.718;21.122;2023-08-17T02:18:36;17.89;97.88
64499;SHT31;51087;55.718;21.122;2023-08-17T02:21:01;17.86;98.02
64499;SHT31;51087;55.718;21.122;2023-08-17T02:23:27;17.82;98.24
64499;SHT31;51087;55.718;21.122;2023-08-17T02:25:52;17.75;98.43
64499;SHT31;51087;55.718;21.122;2023-08-17T02:28:17;17.73;98.48
64499;SHT31;51087;55.718;21.122;2023-08-17T02:30:43;17.69;98.67
64499;SHT31;51087;55.718;21.122;2023-08-17T02:33:08;17.67;98.81
64499;SHT31;51087;55.718;21.122;2023-08-17T02:35:34;17.63;98.82
64499;SHT31;51087;55.718;21.122;2023-08-17T02:37:59;17.66;99.06
64499;SHT31;51087;55.718;21.122;2023-08-17T02:40:25;17.63;99.10
64499;SHT31;51087;55.718;21.122;2023-08-17T02:42:50;17.62;99.33
64499;SHT31;51087;55.718;21.122;2023-08-17T02:45:16;17.55;99.37
64499;SHT31;51087;55.718;21.122;2023-08-17T02:47:41;17.52;99.66
64499;SHT31;51087;55.718;21.122;2023-08-17T02:50:07;17.46;99.93
64499;SHT31;51087;55.718;21.122;2023-08-17T02:52:32;17.46;99.99
64499;SHT31;51087;55.718;21.122;2023-08-17T02:54:57;17.48;99.99
64499;SHT31;51087;55.718;21.122;2023-08-17T02:57:23;17.42;99.99
64499;SHT31;51087;55.718;21.122;2023-08-17T02:59:49;17.42;99.99
64499;SHT31;51087;55.718;21.122;2023-08-17T03:02:14;17.43;99.99
64499;SHT31;51087;55.718;21.122;2023-08-17T03:04:39;17.48;99.99
64499;SHT31;51087;55.718;21.122;2023-08-17T03:07:06;17.38;99.99
64499;SHT31;51087;55.718;21.122;2023-08-17T03:09:31;17.43;99.99
64499;SHT31;51087;55.718;21.122;2023-08-17T03:11:56;17.40;99.99
64499;SHT31;51087;55.718;21.122;2023-08-17T03:14:22;17.40;99.99
64499;SHT31;51087;55.718;21.122;2023-08-17T03:16:47;17.38;99.99
64499;SHT31;51087;55.718;21.122;2023-08-17T03:19:13;17.36;99.99
64499;SHT31;51087;55.718;21.122;2023-08-17T03:21:38;17.36;99.99
64499;SHT31;51087;55.718;21.122;2023-08-17T03:24:04;17.40;99.99
64499;SHT31;51087;55.718;21.122;2023-08-17T03:26:30;17.38;99.99
64499;SHT31;51087;55.718;21.122;2023-08-17T03:28:55;17.40;99.99
64499;SHT31;51087;55.718;21.122;2023-08-17T03:31:21;17.39;99.99
64499;SHT31;51087;55.718;21.122;2023-08-17T03:33:46;17.42;99.99
64499;SHT31;51087;55.718;21.122;2023-08-17T03:36:12;17.38;99.99
64499;SHT31;51087;55.718;21.122;2023-08-17T03:38:37;17.40;99.99
64499;SHT31;51087;55.718;21.122;2023-08-17T03:41:07;17.48;99.99
64499;SHT31;51087;55.718;21.122;2023-08-17T03:43:33;17.49;99.99
64499;SHT31;51087;55.718;21.122;2023-08-17T03:45:58;17.52;99.99
64499;SHT31;51087;55.718;21.122;2023-08-17T03:48:23;17.52;99.99
64499;SHT31;51087;55.718;21.122;2023-08-17T03:50:52;17.53;99.84
64499;SHT31;51087;55.718;21.122;2023-08-17T03:53:18;17.55;99.75
64499;SHT31;51087;55.718;21.122;2023-08-17T03:55:50;17.59;99.63
64499;SHT31;51087;55.718;21.122;2023-08-17T03:58:17;17.59;99.56
64499;SHT31;51087;55.718;21.122;2023-08-17T04:00:49;17.62;99.44
64499;SHT31;51087;55.718;21.122;2023-08-17T04:03:14;17.65;99.33
64499;SHT31;51087;55.718;21.122;2023-08-17T04:05:40;17.63;98.95
64499;SHT31;51087;55.718;21.122;2023-08-17T04:08:05;17.69;98.62
64499;SHT31;51087;55.718;21.122;2023-08-17T04:10:31;17.67;98.45
64499;SHT31;51087;55.718;21.122;2023-08-17T04:12:56;17.73;98.22
64499;SHT31;51087;55.718;21.122;2023-08-17T04:15:22;17.76;97.88
64499;SHT31;51087;55.718;21.122;2023-08-17T04:17:47;17.83;97.70
64499;SHT31;51087;55.718;21.122;2023-08-17T04:20:13;17.87;97.39
64499;SHT31;51087;55.718;21.122;2023-08-17T04:22:38;17.91;97.16
64499;SHT31;51087;55.718;21.122;2023-08-17T04:25:04;18.01;97.04
64499;SHT31;51087;55.718;21.122;2023-08-17T04:27:30;18.07;96.86
64499;SHT31;51087;55.718;21.122;2023-08-17T04:29:55;18.17;96.82
64499;SHT31;51087;55.718;21.122;2023-08-17T04:32:20;18.21;96.38
64499;SHT31;51087;55.718;21.122;2023-08-17T04:34:46;18.25;96.35
64499;SHT31;51087;55.718;21.122;2023-08-17T04:37:12;18.31;96.11
64499;SHT31;51087;55.718;21.122;2023-08-17T04:39:37;18.37;95.87
64499;SHT31;51087;55.718;21.122;2023-08-17T04:42:03;18.41;95.90
64499;SHT31;51087;55.718;21.122;2023-08-17T04:44:29;18.49;95.76
64499;SHT31;51087;55.718;21.122;2023-08-17T04:46:54;18.55;95.41
64499;SHT31;51087;55.718;21.122;2023-08-17T04:49:20;18.62;95.08
64499;SHT31;51087;55.718;21.122;2023-08-17T04:51:45;18.69;94.77
64499;SHT31;51087;55.718;21.122;2023-08-17T04:54:11;18.73;94.63
64499;SHT31;51087;55.718;21.122;2023-08-17T04:56:36;18.76;94.43
64499;SHT31;51087;55.718;21.122;2023-08-17T04:59:01;18.75;94.25
64499;SHT31;51087;55.718;21.122;2023-08-17T05:01:27;18.75;94.02
64499;SHT31;51087;55.718;21.122;2023-08-17T05:03:52;18.79;94.11
64499;SHT31;51087;55.718;21.122;2023-08-17T05:06:18;18.80;93.83
64499;SHT31;51087;55.718;21.122;2023-08-17T05:08:43;18.96;93.58
64499;SHT31;51087;55.718;21.122;2023-08-17T05:11:08;19.06;93.40
64499;SHT31;51087;55.718;21.122;2023-08-17T05:13:34;19.17;93.17
64499;SHT31;51087;55.718;21.122;2023-08-17T05:15:59;19.25;92.70
64499;SHT31;51087;55.718;21.122;2023-08-17T05:18:25;19.36;92.76
64499;SHT31;51087;55.718;21.122;2023-08-17T05:20:50;19.45;91.91
64499;SHT31;51087;55.718;21.122;2023-08-17T05:23:15;19.55;91.58
64499;SHT31;51087;55.718;21.122;2023-08-17T05:25:41;19.55;91.07
64499;SHT31;51087;55.718;21.122;2023-08-17T05:28:06;19.55;91.34
64499;SHT31;51087;55.718;21.122;2023-08-17T05:30:32;19.57;91.22
64499;SHT31;51087;55.718;21.122;2023-08-17T05:32:58;19.54;91.49
64499;SHT31;51087;55.718;21.122;2023-08-17T05:35:24;19.44;91.56
64499;SHT31;51087;55.718;21.122;2023-08-17T05:37:49;19.50;91.23
64499;SHT31;51087;55.718;21.122;2023-08-17T05:40:15;19.54;91.17
64499;SHT31;51087;55.718;21.122;2023-08-17T05:42:40;19.71;90.73
64499;SHT31;51087;55.718;21.122;2023-08-17T05:45:06;19.81;90.60
64499;SHT31;51087;55.718;21.122;2023-08-17T05:47:31;19.87;90.47
64499;SHT31;51087;55.718;21.122;2023-08-17T05:49:57;19.83;90.31
64499;SHT31;51087;55.718;21.122;2023-08-17T05:52:22;19.83;90.38
64499;SHT31;51087;55.718;21.122;2023-08-17T05:54:47;19.82;88.96
64499;SHT31;51087;55.718;21.122;2023-08-17T05:57:13;19.87;88.78
64499;SHT31;51087;55.718;21.122;2023-08-17T05:59:38;19.92;89.23
64499;SHT31;51087;55.718;21.122;2023-08-17T06:02:04;20.00;88.55
64499;SHT31;51087;55.718;21.122;2023-08-17T06:04:29;20.09;88.25
64499;SHT31;51087;55.718;21.122;2023-08-17T06:06:55;20.14;87.71
64499;SHT31;51087;55.718;21.122;2023-08-17T06:09:20;20.18;86.83
64499;SHT31;51087;55.718;21.122;2023-08-17T06:11:45;20.24;87.03
64499;SHT31;51087;55.718;21.122;2023-08-17T06:14:11;20.28;86.81
64499;SHT31;51087;55.718;21.122;2023-08-17T06:16:37;20.30;85.98
64499;SHT31;51087;55.718;21.122;2023-08-17T06:19:03;20.36;85.51
64499;SHT31;51087;55.718;21.122;2023-08-17T06:21:28;20.43;85.07
64499;SHT31;51087;55.718;21.122;2023-08-17T06:23:53;20.47;85.42
64499;SHT31;51087;55.718;21.122;2023-08-17T06:26:19;20.59;85.20
64499;SHT31;51087;55.718;21.122;2023-08-17T06:28:44;20.68;84.91
64499;SHT31;51087;55.718;21.122;2023-08-17T06:31:10;20.68;84.85
64499;SHT31;51087;55.718;21.122;2023-08-17T06:33:35;20.78;84.42
64499;SHT31;51087;55.718;21.122;2023-08-17T06:36:01;20.85;85.02
64499;SHT31;51087;55.718;21.122;2023-08-17T06:38:26;21.04;84.07
64499;SHT31;51087;55.718;21.122;2023-08-17T06:40:52;21.06;83.25
64499;SHT31;51087;55.718;21.122;2023-08-17T06:43:18;21.09;83.52
64499;SHT31;51087;55.718;21.122;2023-08-17T06:45:43;21.07;83.02
64499;SHT31;51087;55.718;21.122;2023-08-17T06:48:09;20.99;82.12
64499;SHT31;51087;55.718;21.122;2023-08-17T06:50:34;20.99;82.20
64499;SHT31;51087;55.718;21.122;2023-08-17T06:53:01;20.96;82.45
64499;SHT31;51087;55.718;21.122;2023-08-17T06:55:27;21.14;81.93
64499;SHT31;51087;55.718;21.122;2023-08-17T06:57:52;21.16;81.27
64499;SHT31;51087;55.718;21.122;2023-08-17T07:00:18;21.07;80.79
64499;SHT31;51087;55.718;21.122;2023-08-17T07:02:47;21.12;81.19
64499;SHT31;51087;55.718;21.122;2023-08-17T07:05:17;20.99;81.33
64499;SHT31;51087;55.718;21.122;2023-08-17T07:07:43;20.79;81.19
64499;SHT31;51087;55.718;21.122;2023-08-17T07:10:10;20.79;80.58
64499;SHT31;51087;55.718;21.122;2023-08-17T07:12:38;20.65;81.08
64499;SHT31;51087;55.718;21.122;2023-08-17T07:15:05;20.36;83.04
64499;SHT31;51087;55.718;21.122;2023-08-17T07:17:31;20.20;84.30
64499;SHT31;51087;55.718;21.122;2023-08-17T07:19:59;20.12;86.92
64499;SHT31;51087;55.718;21.122;2023-08-17T07:22:24;19.99;89.00
64499;SHT31;51087;55.718;21.122;2023-08-17T07:24:50;19.79;90.63
64499;SHT31;51087;55.718;21.122;2023-08-17T07:27:15;19.81;90.76
64499;SHT31;51087;55.718;21.122;2023-08-17T07:29:40;19.73;91.10
64499;SHT31;51087;55.718;21.122;2023-08-17T07:32:06;19.76;91.02
64499;SHT31;51087;55.718;21.122;2023-08-17T07:34:32;19.75;91.13
64499;SHT31;51087;55.718;21.122;2023-08-17T07:36:58;19.75;91.62
64499;SHT31;51087;55.718;21.122;2023-08-17T07:39:23;19.75;91.70
64499;SHT31;51087;55.718;21.122;2023-08-17T07:41:48;19.75;91.76
64499;SHT31;51087;55.718;21.122;2023-08-17T07:44:14;19.76;92.35
64499;SHT31;51087;55.718;21.122;2023-08-17T07:46:40;19.69;92.91
64499;SHT31;51087;55.718;21.122;2023-08-17T07:49:05;19.63;93.47
64499;SHT31;51087;55.718;21.122;2023-08-17T07:51:31;19.57;94.38
64499;SHT31;51087;55.718;21.122;2023-08-17T07:53:59;19.50;94.31
64499;SHT31;51087;55.718;21.122;2023-08-17T07:56:25;19.48;94.68
64499;SHT31;51087;55.718;21.122;2023-08-17T07:58:50;19.45;94.66
64499;SHT31;51087;55.718;21.122;2023-08-17T08:01:16;19.45;95.21
64499;SHT31;51087;55.718;21.122;2023-08-17T08:03:41;19.34;96.32
64499;SHT31;51087;55.718;21.122;2023-08-17T08:06:06;19.31;96.99
64499;SHT31;51087;55.718;21.122;2023-08-17T08:08:32;19.36;97.34
64499;SHT31;51087;55.718;21.122;2023-08-17T08:10:58;19.39;96.60
64499;SHT31;51087;55.718;21.122;2023-08-17T08:13:23;19.31;97.67
64499;SHT31;51087;55.718;21.122;2023-08-17T08:15:49;19.35;98.12
64499;SHT31;51087;55.718;21.122;2023-08-17T08:18:14;19.41;98.29
64499;SHT31;51087;55.718;21.122;2023-08-17T08:20:40;19.41;97.43
64499;SHT31;51087;55.718;21.122;2023-08-17T08:23:05;19.51;97.03
64499;SHT31;51087;55.718;21.122;2023-08-17T08:25:31;19.61;97.50
64499;SHT31;51087;55.718;21.122;2023-08-17T08:27:56;19.61;97.25
64499;SHT31;51087;55.718;21.122;2023-08-17T08:30:22;19.75;97.05
64499;SHT31;51087;55.718;21.122;2023-08-17T08:32:47;19.82;95.61
64499;SHT31;51087;55.718;21.122;2023-08-17T08:35:13;19.92;94.92
64499;SHT31;51087;55.718;21.122;2023-08-17T08:37:38;19.85;94.54
64499;SHT31;51087;55.718;21.122;2023-08-17T08:40:11;19.93;93.43
64499;SHT31;51087;55.718;21.122;2023-08-17T08:42:36;19.89;93.30
64499;SHT31;51087;55.718;21.122;2023-08-17T08:45:02;19.82;92.43
64499;SHT31;51087;55.718;21.122;2023-08-17T08:47:29;19.81;92.65
64499;SHT31;51087;55.718;21.122;2023-08-17T08:50:01;19.83;92.25
64499;SHT31;51087;55.718;21.122;2023-08-17T08:54:58;19.66;91.54
64499;SHT31;51087;55.718;21.122;2023-08-17T08:57:24;19.68;92.27
64499;SHT31;51087;55.718;21.122;2023-08-17T08:59:52;19.62;90.23
64499;SHT31;51087;55.718;21.122;2023-08-17T09:02:18;19.51;90.13
64499;SHT31;51087;55.718;21.122;2023-08-17T09:04:45;19.30;91.75
64499;SHT31;51087;55.718;21.122;2023-08-17T09:07:12;19.23;91.82
64499;SHT31;51087;55.718;21.122;2023-08-17T09:09:39;19.25;92.29
64499;SHT31;51087;55.718;21.122;2023-08-17T09:12:07;19.17;92.75
64499;SHT31;51087;55.718;21.122;2023-08-17T09:14:32;19.20;95.66
64499;SHT31;51087;55.718;21.122;2023-08-17T09:16:57;18.76;95.50
64499;SHT31;51087;55.718;21.122;2023-08-17T09:19:24;18.72;96.59
64499;SHT31;51087;55.718;21.122;2023-08-17T09:21:50;18.44;97.53
64499;SHT31;51087;55.718;21.122;2023-08-17T09:24:15;18.34;99.22
64499;SHT31;51087;55.718;21.122;2023-08-17T09:26:41;18.35;99.93
64499;SHT31;51087;55.718;21.122;2023-08-17T09:29:20;18.40;99.62
64499;SHT31;51087;55.718;21.122;2023-08-17T09:31:46;18.37;98.32
64499;SHT31;51087;55.718;21.122;2023-08-17T09:34:14;18.37;97.86
64499;SHT31;51087;55.718;21.122;2023-08-17T09:36:39;18.45;98.68
64499;SHT31;51087;55.718;21.122;2023-08-17T09:39:05;18.51;97.37
64499;SHT31;51087;55.718;21.122;2023-08-17T09:41:38;18.55;98.36
64499;SHT31;51087;55.718;21.122;2023-08-17T09:44:04;18.44;97.84
64499;SHT31;51087;55.718;21.122;2023-08-17T09:46:29;18.49;98.51
64499;SHT31;51087;55.718;21.122;2023-08-17T09:48:55;18.47;97.41
64499;SHT31;51087;55.718;21.122;2023-08-17T09:51:20;18.49;98.40
64499;SHT31;51087;55.718;21.122;2023-08-17T09:53:51;18.52;98.59
64499;SHT31;51087;55.718;21.122;2023-08-17T09:56:17;18.60;98.98
64499;SHT31;51087;55.718;21.122;2023-08-17T09:58:43;18.70;97.38
64499;SHT31;51087;55.718;21.122;2023-08-17T10:01:09;18.89;96.94
64499;SHT31;51087;55.718;21.122;2023-08-17T10:03:35;19.06;96.66
64499;SHT31;51087;55.718;21.122;2023-08-17T10:06:09;19.36;97.53
64499;SHT31;51087;55.718;21.122;2023-08-17T10:08:45;19.58;97.37
64499;SHT31;51087;55.718;21.122;2023-08-17T10:11:12;19.72;95.86
64499;SHT31;51087;55.718;21.122;2023-08-17T10:13:45;19.68;97.35
64499;SHT31;51087;55.718;21.122;2023-08-17T10:18:54;21.46;94.43
64499;SHT31;51087;55.718;21.122;2023-08-17T10:21:39;22.87;93.03
64499;SHT31;51087;55.718;21.122;2023-08-17T10:24:07;23.94;89.66
64499;SHT31;51087;55.718;21.122;2023-08-17T10:26:33;25.07;89.41
64499;SHT31;51087;55.718;21.122;2023-08-17T10:28:59;25.41;85.24
64499;SHT31;51087;55.718;21.122;2023-08-17T10:31:28;26.05;81.33
64499;SHT31;51087;55.718;21.122;2023-08-17T10:33:54;26.58;76.96
64499;SHT31;51087;55.718;21.122;2023-08-17T10:36:20;27.02;80.31
64499;SHT31;51087;55.718;21.122;2023-08-17T10:39:23;26.04;77.87
64499;SHT31;51087;55.718;21.122;2023-08-17T10:41:51;25.67;78.09
64499;SHT31;51087;55.718;21.122;2023-08-17T10:47:28;25.94;80.97
64499;SHT31;51087;55.718;21.122;2023-08-17T10:50:21;25.28;78.83
64499;SHT31;51087;55.718;21.122;2023-08-17T10:52:48;24.83;78.91
64499;SHT31;51087;55.718;21.122;2023-08-17T10:55:14;24.77;80.32
64499;SHT31;51087;55.718;21.122;2023-08-17T10:57:41;24.39;80.79
64499;SHT31;51087;55.718;21.122;2023-08-17T11:02:40;25.53;80.51
64499;SHT31;51087;55.718;21.122;2023-08-17T11:05:06;27.75;75.12
64499;SHT31;51087;55.718;21.122;2023-08-17T11:07:42;28.33;72.27
64499;SHT31;51087;55.718;21.122;2023-08-17T11:10:31;27.23;75.29
64499;SHT31;51087;55.718;21.122;2023-08-17T11:12:57;26.52;76.18
64499;SHT31;51087;55.718;21.122;2023-08-17T11:15:40;25.66;77.74
64499;SHT31;51087;55.718;21.122;2023-08-17T11:18:11;25.24;77.90
64499;SHT31;51087;55.718;21.122;2023-08-17T11:20:38;25.21;80.57
64499;SHT31;51087;55.718;21.122;2023-08-17T11:23:09;25.80;75.00
64499;SHT31;51087;55.718;21.122;2023-08-17T11:25:35;26.41;76.84
64499;SHT31;51087;55.718;21.122;2023-08-17T11:28:01;27.44;72.05
64499;SHT31;51087;55.718;21.122;2023-08-17T11:30:28;27.24;70.82
64499;SHT31;51087;55.718;21.122;2023-08-17T11:32:54;26.93;71.94
64499;SHT31;51087;55.718;21.122;2023-08-17T11:35:20;26.59;72.54
64499;SHT31;51087;55.718;21.122;2023-08-17T11:37:48;26.32;72.64
64499;SHT31;51087;55.718;21.122;2023-08-17T11:40:15;26.24;71.27
64499;SHT31;51087;55.718;21.122;2023-08-17T11:42:41;27.55;69.45
64499;SHT31;51087;55.718;21.122;2023-08-17T11:45:08;28.67;68.03
64499;SHT31;51087;55.718;21.122;2023-08-17T11:47:40;27.61;69.78
64499;SHT31;51087;55.718;21.122;2023-08-17T11:50:08;26.78;72.47
64499;SHT31;51087;55.718;21.122;2023-08-17T11:52:34;26.62;73.36
64499;SHT31;51087;55.718;21.122;2023-08-17T11:55:03;26.82;73.23
64499;SHT31;51087;55.718;21.122;2023-08-17T11:57:31;26.37;73.83
64499;SHT31;51087;55.718;21.122;2023-08-17T11:59:57;26.35;73.33
64499;SHT31;51087;55.718;21.122;2023-08-17T12:02:23;26.14;74.76
64499;SHT31;51087;55.718;21.122;2023-08-17T12:04:50;25.92;74.95
64499;SHT31;51087;55.718;21.122;2023-08-17T12:07:16;25.79;75.51
64499;SHT31;51087;55.718;21.122;2023-08-17T12:09:43;25.86;74.71
64499;SHT31;51087;55.718;21.122;2023-08-17T12:12:09;26.11;72.80
64499;SHT31;51087;55.718;21.122;2023-08-17T12:14:35;25.87;74.58
64499;SHT31;51087;55.718;21.122;2023-08-17T12:17:00;25.70;75.73
64499;SHT31;51087;55.718;21.122;2023-08-17T12:19:26;25.97;75.60
64499;SHT31;51087;55.718;21.122;2023-08-17T12:21:52;25.94;75.55
64499;SHT31;51087;55.718;21.122;2023-08-17T12:24:18;26.04;76.06
64499;SHT31;51087;55.718;21.122;2023-08-17T12:26:45;25.77;75.92
64499;SHT31;51087;55.718;21.122;2023-08-17T12:29:14;25.59;77.60
64499;SHT31;51087;55.718;21.122;2023-08-17T12:31:39;25.94;75.32
64499;SHT31;51087;55.718;21.122;2023-08-17T12:34:05;26.51;76.11
64499;SHT31;51087;55.718;21.122;2023-08-17T12:36:34;25.94;74.38
64499;SHT31;51087;55.718;21.122;2023-08-17T12:39:00;25.80;76.78
64499;SHT31;51087;55.718;21.122;2023-08-17T12:41:26;25.89;75.53
64499;SHT31;51087;55.718;21.122;2023-08-17T12:43:51;25.96;76.41
64499;SHT31;51087;55.718;21.122;2023-08-17T12:46:19;25.79;76.92
64499;SHT31;51087;55.718;21.122;2023-08-17T12:48:44;25.83;77.15
64499;SHT31;51087;55.718;21.122;2023-08-17T12:51:10;25.75;76.14
64499;SHT31;51087;55.718;21.122;2023-08-17T12:53:35;25.76;78.27
64499;SHT31;51087;55.718;21.122;2023-08-17T12:56:01;25.93;79.44
64499;SHT31;51087;55.718;21.122;2023-08-17T12:58:26;25.75;78.02
64499;SHT31;51087;55.718;21.122;2023-08-17T13:00:52;26.07;76.98
64499;SHT31;51087;55.718;21.122;2023-08-17T13:03:19;26.20;76.40
64499;SHT31;51087;55.718;21.122;2023-08-17T13:05:45;25.83;76.95
64499;SHT31;51087;55.718;21.122;2023-08-17T13:08:10;26.05;78.75
64499;SHT31;51087;55.718;21.122;2023-08-17T13:10:36;26.37;78.45
64499;SHT31;51087;55.718;21.122;2023-08-17T13:13:02;26.42;77.20
64499;SHT31;51087;55.718;21.122;2023-08-17T13:15:27;26.20;77.95
64499;SHT31;51087;55.718;21.122;2023-08-17T13:17:53;26.24;76.78
64499;SHT31;51087;55.718;21.122;2023-08-17T13:20:19;26.78;75.01
64499;SHT31;51087;55.718;21.122;2023-08-17T13:22:44;28.24;74.51
64499;SHT31;51087;55.718;21.122;2023-08-17T13:25:09;28.43;72.73
64499;SHT31;51087;55.718;21.122;2023-08-17T13:27:35;29.97;66.91
64499;SHT31;51087;55.718;21.122;2023-08-17T13:30:00;30.39;65.51
64499;SHT31;51087;55.718;21.122;2023-08-17T13:32:27;30.68;69.44
64499;SHT31;51087;55.718;21.122;2023-08-17T13:34:53;30.43;66.17
64499;SHT31;51087;55.718;21.122;2023-08-17T13:37:19;30.01;68.88
64499;SHT31;51087;55.718;21.122;2023-08-17T13:39:45;29.82;68.48
64499;SHT31;51087;55.718;21.122;2023-08-17T13:42:11;29.85;70.60
64499;SHT31;51087;55.718;21.122;2023-08-17T13:44:37;29.46;69.76
64499;SHT31;51087;55.718;21.122;2023-08-17T13:47:03;28.91;69.70
64499;SHT31;51087;55.718;21.122;2023-08-17T13:49:28;28.71;71.55
64499;SHT31;51087;55.718;21.122;2023-08-17T13:51:54;28.98;72.72
64499;SHT31;51087;55.718;21.122;2023-08-17T13:54:21;28.54;71.53
64499;SHT31;51087;55.718;21.122;2023-08-17T13:56:47;28.69;72.35
64499;SHT31;51087;55.718;21.122;2023-08-17T13:59:13;28.83;71.77
64499;SHT31;51087;55.718;21.122;2023-08-17T14:01:38;28.68;73.54
64499;SHT31;51087;55.718;21.122;2023-08-17T14:04:04;28.44;72.81
64499;SHT31;51087;55.718;21.122;2023-08-17T14:06:32;27.95;75.02
64499;SHT31;51087;55.718;21.122;2023-08-17T14:08:57;27.57;75.54
64499;SHT31;51087;55.718;21.122;2023-08-17T14:11:23;27.38;76.18
64499;SHT31;51087;55.718;21.122;2023-08-17T14:13:48;27.50;75.26
64499;SHT31;51087;55.718;21.122;2023-08-17T14:16:13;27.81;76.34
64499;SHT31;51087;55.718;21.122;2023-08-17T14:18:39;27.65;75.63
64499;SHT31;51087;55.718;21.122;2023-08-17T14:21:04;27.59;77.43
64499;SHT31;51087;55.718;21.122;2023-08-17T14:23:30;27.34;75.63
64499;SHT31;51087;55.718;21.122;2023-08-17T14:25:55;27.45;77.29
64499;SHT31;51087;55.718;21.122;2023-08-17T14:28:21;26.96;77.98
64499;SHT31;51087;55.718;21.122;2023-08-17T14:30:46;26.73;78.68
64499;SHT31;51087;55.718;21.122;2023-08-17T14:33:11;26.31;79.06
64499;SHT31;51087;55.718;21.122;2023-08-17T14:35:39;26.03;80.22
64499;SHT31;51087;55.718;21.122;2023-08-17T14:38:05;26.03;80.21
64499;SHT31;51087;55.718;21.122;2023-08-17T14:40:30;26.00;80.47
64499;SHT31;51087;55.718;21.122;2023-08-17T14:42:55;25.84;81.12
64499;SHT31;51087;55.718;21.122;2023-08-17T14:45:21;25.87;80.07
64499;SHT31;51087;55.718;21.122;2023-08-17T14:47:46;25.84;81.32
64499;SHT31;51087;55.718;21.122;2023-08-17T14:50:12;25.97;79.73
64499;SHT31;51087;55.718;21.122;2023-08-17T14:52:39;25.80;81.32
64499;SHT31;51087;55.718;21.122;2023-08-17T14:55:04;25.72;81.77
64499;SHT31;51087;55.718;21.122;2023-08-17T14:57:30;25.75;82.30
64499;SHT31;51087;55.718;21.122;2023-08-17T14:59:55;25.84;81.61
64499;SHT31;51087;55.718;21.122;2023-08-17T15:02:21;25.89;81.92
64499;SHT31;51087;55.718;21.122;2023-08-17T15:04:46;25.77;81.83
64499;SHT31;51087;55.718;21.122;2023-08-17T15:07:13;25.59;82.33
64499;SHT31;51087;55.718;21.122;2023-08-17T15:09:38;25.62;82.07
64499;SHT31;51087;55.718;21.122;2023-08-17T15:12:04;25.58;83.12
64499;SHT31;51087;55.718;21.122;2023-08-17T15:14:30;25.39;82.80
64499;SHT31;51087;55.718;21.122;2023-08-17T15:16:56;25.24;82.88
64499;SHT31;51087;55.718;21.122;2023-08-17T15:19:21;25.31;82.94
64499;SHT31;51087;55.718;21.122;2023-08-17T15:21:47;25.32;82.85
64499;SHT31;51087;55.718;21.122;2023-08-17T15:24:12;25.41;82.72